Hartsburg, MO

7:38 PM CDT on April 01, 2015 (GMT -0500)
RAWS | | Change Station
CLOSE
Current Station
Personal Weather Station
Location: Ashland, MO
Elevation: 797 ft
Nearby Weather Stations

Elev 797 ft 38.81 °N, 92.26 °W | Updated 25 minutes ago

Rain
Rain
59 °F
Feels Like 59 °F
N
5
Wind Variable Wind from SSE
Gusts 17.0 mph

Today
High -- | Low -- °F
--% Chance of Precip.
Yesterday
High -- | Low -- °F
Precip. -- in
6:54 AM 7:32 PM
Waxing Gibbous, 94% visible
Pressure 29.84 in
Visibility 6.0 miles
Clouds Few 5500 ft
Mostly Cloudy 7500 ft
Overcast 9000 ft
Dew Point 58 °F
Humidity 98%
Rainfall in
Snow Depth Not available.
UV 0 out of 12
Pollen 10.90 out of 12
Air Quality Not available.
Flu Activity Not available.
METAR KCOU 012354Z 15011KT 6SM -RA BR FEW055 BKN075 OVC090 15/14 A2985 RMK AO2 PK WND 19029/2301 TSB06E33 SLP105 P0008 60008 T01500139 10256 20150 58004

More Conditions Fewer Conditions

Pressure 29.84 in
Visibility 6.0 miles
Clouds Few 5500 ft
Mostly Cloudy 7500 ft
Overcast 9000 ft
Dew Point 58 °F
Humidity 98%
Rainfall in
Snow Depth Not available.
UV 0 out of 12
Pollen 10.90 out of 12
Air Quality Not available.
Flu Activity Not available.
METAR KCOU 012354Z 15011KT 6SM -RA BR FEW055 BKN075 OVC090 15/14 A2985 RMK AO2 PK WND 19029/2301 TSB06E33 SLP105 P0008 60008 T01500139 10256 20150 58004

More Conditions Fewer Conditions

10-Day Weather Forecast

Almanac

Astronomy

Apr. 01, 2015 Rise Set
Actual Time
Civil Twilight
Nautical Twilight
Astronomical Twilight
Moon
Length of Visible Light
Length of Day
Tomorrow will be .
, % of the Moon is Illuminated

Today's Extremes

State Highs State Lows

Community

WunderPhotos

Upload Photos

1,810,131 photos uploaded!

WunderBlogs® & News

Nearby

Air Quality

  Air Quality AQ Index Pollutant
Not available.

Snow Depth

Station Depth Elevation

Earthquake Activity

City Distance Mag. Time & Date
Minimum magnitude displayed is 2.5.

Coastal Water Temperatures

Place Temperature

Stations

Nearby Weather Stations

Station Location Temp. Windchill Dew Point Humidity Wind Precip. Elev Updated Type